createdAt,value
2022-10-05T00:01:23.506Z,100.00
2022-10-05T00:03:51.079Z,100.00
2022-10-05T00:06:17.230Z,100.00
2022-10-05T00:08:43.938Z,100.00
2022-10-05T00:11:14.271Z,100.00
2022-10-05T00:13:40.861Z,100.00
2022-10-05T00:16:19.267Z,100.00
2022-10-05T00:18:49.278Z,100.00
2022-10-05T00:21:24.415Z,100.00
2022-10-05T00:23:53.271Z,100.00
2022-10-05T00:26:22.773Z,100.00
2022-10-05T00:28:49.681Z,100.00
2022-10-05T00:31:22.359Z,100.00
2022-10-05T00:33:50.726Z,100.00
2022-10-05T00:36:16.970Z,100.00
2022-10-05T00:38:44.903Z,100.00
2022-10-05T00:41:25.355Z,100.00
2022-10-05T00:44:22.974Z,100.00
2022-10-05T00:47:15.920Z,100.00
2022-10-05T00:50:13.046Z,100.00
2022-10-05T00:53:06.953Z,100.00
2022-10-05T00:56:01.182Z,100.00
2022-10-05T00:58:41.468Z,100.00
2022-10-05T01:01:07.589Z,100.00
2022-10-05T01:03:49.117Z,100.00
2022-10-05T01:06:36.819Z,100.00
2022-10-05T01:09:09.487Z,100.00
2022-10-05T01:11:49.305Z,100.00
2022-10-05T01:14:20.966Z,100.00
2022-10-05T01:16:54.177Z,100.00
2022-10-05T01:19:31.172Z,100.00
2022-10-05T01:22:13.333Z,100.00
2022-10-05T01:24:42.858Z,100.00
2022-10-05T01:27:46.421Z,100.00
2022-10-05T01:30:14.278Z,100.00
2022-10-05T01:33:23.606Z,100.00
2022-10-05T01:36:05.342Z,100.00
2022-10-05T01:39:02.543Z,100.00
2022-10-05T01:41:39.706Z,100.00
2022-10-05T01:44:14.184Z,100.00
2022-10-05T01:46:56.417Z,100.00
2022-10-05T01:49:46.929Z,100.00
2022-10-05T01:53:06.097Z,100.00
2022-10-05T01:55:47.631Z,100.00
2022-10-05T01:58:40.446Z,100.00
2022-10-05T02:01:16.775Z,100.00
2022-10-05T02:03:52.698Z,100.00
2022-10-05T02:06:31.519Z,100.00
2022-10-05T02:09:04.527Z,100.00
2022-10-05T02:11:33.119Z,100.00
2022-10-05T02:14:06.854Z,100.00
2022-10-05T02:16:39.142Z,100.00
2022-10-05T02:19:08.514Z,100.00
2022-10-05T02:21:35.990Z,100.00
2022-10-05T02:24:11.055Z,100.00
2022-10-05T02:26:39.843Z,100.00
2022-10-05T02:29:10.840Z,100.00
2022-10-05T02:31:40.205Z,100.00
2022-10-05T02:34:29.437Z,100.00
2022-10-05T02:37:26.536Z,100.00
2022-10-05T02:40:15.277Z,100.00
2022-10-05T02:42:59.362Z,100.00
2022-10-05T02:45:40.927Z,100.00
2022-10-05T02:48:12.033Z,100.00
2022-10-05T02:50:49.393Z,100.00
2022-10-05T02:53:36.942Z,100.00
2022-10-05T02:56:30.346Z,100.00
2022-10-05T02:59:15.008Z,100.00
2022-10-05T03:01:55.320Z,100.00
2022-10-05T03:04:32.078Z,100.00
2022-10-05T03:07:08.122Z,100.00
2022-10-05T03:09:43.343Z,100.00
2022-10-05T03:12:43.840Z,100.00
2022-10-05T03:15:40.093Z,100.00
2022-10-05T03:18:31.002Z,100.00
2022-10-05T03:21:31.315Z,100.00
2022-10-05T03:24:16.678Z,100.00
2022-10-05T03:26:50.693Z,100.00
2022-10-05T03:29:28.738Z,100.00
2022-10-05T03:32:14.940Z,100.00
2022-10-05T03:34:56.540Z,100.00
2022-10-05T03:37:33.985Z,100.00
2022-10-05T03:40:18.773Z,100.00
2022-10-05T03:42:58.229Z,100.00
2022-10-05T03:45:41.439Z,100.00
2022-10-05T03:48:13.470Z,100.00
2022-10-05T03:50:45.908Z,100.00
2022-10-05T03:53:26.702Z,100.00
2022-10-05T03:56:05.992Z,100.00
2022-10-05T03:58:32.520Z,100.00
2022-10-05T04:01:04.907Z,100.00
2022-10-05T04:03:45.854Z,100.00
2022-10-05T04:06:25.596Z,100.00
2022-10-05T04:08:55.694Z,100.00
2022-10-05T04:11:29.745Z,100.00
2022-10-05T04:14:12.290Z,100.00
2022-10-05T04:16:49.616Z,100.00
2022-10-05T04:19:35.982Z,100.00
2022-10-05T04:22:21.244Z,100.00
2022-10-05T04:25:02.672Z,100.00
2022-10-05T04:27:38.591Z,100.00
2022-10-05T04:30:11.972Z,100.00
2022-10-05T04:32:44.264Z,100.00
2022-10-05T04:35:40.513Z,100.00
2022-10-05T04:38:25.855Z,100.00
2022-10-05T04:41:20.773Z,100.00
2022-10-05T04:44:29.847Z,100.00
2022-10-05T04:47:15.622Z,100.00
2022-10-05T04:49:55.088Z,100.00
2022-10-05T04:52:46.619Z,100.00
2022-10-05T04:55:46.116Z,100.00
2022-10-05T04:58:42.277Z,100.00
2022-10-05T05:01:44.125Z,100.00
2022-10-05T05:04:41.568Z,100.00
2022-10-05T05:07:36.098Z,100.00
2022-10-05T05:10:14.484Z,100.00
2022-10-05T05:12:50.079Z,100.00
2022-10-05T05:15:29.138Z,100.00
2022-10-05T05:18:28.598Z,100.00
2022-10-05T05:21:16.013Z,100.00
2022-10-05T05:23:54.893Z,100.00
2022-10-05T05:26:45.784Z,100.00
2022-10-05T05:29:37.253Z,100.00
2022-10-05T05:32:15.128Z,100.00
2022-10-05T05:35:06.244Z,100.00
2022-10-05T05:37:43.768Z,100.00
2022-10-05T05:40:35.521Z,100.00
2022-10-05T05:43:10.886Z,100.00
2022-10-05T05:45:41.753Z,100.00
2022-10-05T05:48:25.828Z,100.00
2022-10-05T05:51:14.198Z,100.00
2022-10-05T05:53:44.554Z,100.00
2022-10-05T05:56:20.283Z,100.00
2022-10-05T05:59:22.623Z,100.00
2022-10-05T06:01:56.071Z,100.00
2022-10-05T06:04:30.699Z,100.00
2022-10-05T06:07:01.775Z,100.00
2022-10-05T06:09:36.608Z,100.00
2022-10-05T06:12:22.051Z,100.00
2022-10-05T06:14:57.658Z,100.00
2022-10-05T06:17:29.618Z,94.72
2022-10-05T06:20:03.947Z,95.66
2022-10-05T06:22:38.108Z,97.63
2022-10-05T06:25:15.745Z,100.00
2022-10-05T06:28:13.159Z,100.00
2022-10-05T06:31:44.441Z,100.00
2022-10-05T06:34:30.374Z,100.00
2022-10-05T06:37:05.083Z,100.00
2022-10-05T06:39:55.458Z,100.00
2022-10-05T06:42:50.804Z,100.00
2022-10-05T06:45:55.683Z,100.00
2022-10-05T06:49:15.652Z,100.00
2022-10-05T06:52:35.115Z,100.00
2022-10-05T06:55:21.551Z,100.00
2022-10-05T06:58:21.742Z,100.00
2022-10-05T07:00:57.737Z,100.00
2022-10-05T07:03:41.967Z,100.00
2022-10-05T07:06:08.609Z,100.00
2022-10-05T07:08:41.799Z,100.00
2022-10-05T07:11:40.840Z,100.00
2022-10-05T07:14:21.785Z,100.00
2022-10-05T07:17:23.012Z,100.00
2022-10-05T07:20:15.023Z,100.00
2022-10-05T07:22:53.401Z,100.00
2022-10-05T07:25:32.139Z,100.00
2022-10-05T07:28:13.742Z,100.00
2022-10-05T07:30:55.550Z,100.00
2022-10-05T07:33:35.199Z,100.00
2022-10-05T07:36:30.905Z,100.00
2022-10-05T07:39:10.927Z,100.00
2022-10-05T07:41:45.356Z,100.00
2022-10-05T07:44:19.857Z,100.00
2022-10-05T07:46:56.050Z,100.00
2022-10-05T07:49:40.590Z,100.00
2022-10-05T07:52:25.441Z,100.00
2022-10-05T07:55:21.007Z,100.00
2022-10-05T07:58:05.170Z,100.00
2022-10-05T08:00:59.725Z,100.00
2022-10-05T08:03:43.971Z,100.00
2022-10-05T08:06:40.094Z,100.00
2022-10-05T08:09:51.271Z,100.00
2022-10-05T08:12:24.256Z,100.00
2022-10-05T08:15:02.600Z,100.00
2022-10-05T08:17:38.448Z,99.49
2022-10-05T08:20:26.685Z,100.00
2022-10-05T08:23:15.191Z,100.00
2022-10-05T08:26:00.221Z,100.00
2022-10-05T08:28:36.162Z,99.82
2022-10-05T08:31:26.060Z,98.92
2022-10-05T08:34:16.087Z,100.00
2022-10-05T08:36:54.056Z,98.35
2022-10-05T08:39:23.936Z,100.00
2022-10-05T08:42:08.713Z,99.16
2022-10-05T08:44:54.363Z,99.30
2022-10-05T08:47:58.242Z,99.16
2022-10-05T08:50:33.616Z,96.67
2022-10-05T08:53:26.681Z,96.86
2022-10-05T08:56:19.083Z,96.76
2022-10-05T08:59:04.438Z,97.63
2022-10-05T09:02:02.418Z,97.56
2022-10-05T09:04:42.365Z,95.91
2022-10-05T09:07:18.544Z,96.08
2022-10-05T09:09:56.253Z,95.26
2022-10-05T09:12:51.912Z,96.01
2022-10-05T09:16:02.499Z,95.08
2022-10-05T09:18:41.261Z,94.05
2022-10-05T09:21:28.923Z,93.67
2022-10-05T09:24:22.349Z,93.25
2022-10-05T09:26:59.676Z,93.17
2022-10-05T09:30:04.175Z,93.19
2022-10-05T09:32:51.484Z,91.34
2022-10-05T09:35:48.721Z,90.99
2022-10-05T09:38:15.391Z,90.86
2022-10-05T09:41:03.319Z,91.48
2022-10-05T09:44:12.930Z,90.62
2022-10-05T09:46:53.640Z,91.90
2022-10-05T09:49:50.744Z,91.03
2022-10-05T09:52:35.330Z,91.79
2022-10-05T09:55:30.266Z,91.71
2022-10-05T09:58:15.165Z,91.86
2022-10-05T10:01:03.767Z,89.93
2022-10-05T10:04:07.218Z,90.34
2022-10-05T10:06:55.402Z,89.16
2022-10-05T10:09:36.493Z,88.02
2022-10-05T10:12:32.464Z,89.73
2022-10-05T10:15:26.757Z,88.61
2022-10-05T10:18:35.439Z,86.97
2022-10-05T10:21:20.712Z,86.33
2022-10-05T10:23:54.396Z,86.74
2022-10-05T10:26:29.853Z,86.55
2022-10-05T10:29:33.783Z,87.63
2022-10-05T10:32:29.916Z,86.01
2022-10-05T10:35:14.581Z,86.24
2022-10-05T10:38:13.317Z,86.88
2022-10-05T10:41:11.151Z,85.95
2022-10-05T10:44:29.241Z,87.11
2022-10-05T10:47:30.056Z,87.28
2022-10-05T10:49:59.013Z,88.13
2022-10-05T10:52:43.575Z,87.25
2022-10-05T10:55:47.602Z,87.86
2022-10-05T10:58:27.727Z,87.91
2022-10-05T11:01:07.698Z,88.61
2022-10-05T11:03:55.029Z,87.34
2022-10-05T11:06:44.030Z,86.89
2022-10-05T11:09:25.624Z,86.45
2022-10-05T11:12:24.781Z,86.66
2022-10-05T11:15:12.579Z,86.95
2022-10-05T11:17:57.714Z,86.72
2022-10-05T11:20:44.394Z,85.77
2022-10-05T11:23:42.594Z,84.81
2022-10-05T11:26:57.240Z,85.53
2022-10-05T11:29:46.989Z,85.07
2022-10-05T11:32:49.519Z,84.69
2022-10-05T11:35:38.015Z,84.96
2022-10-05T11:38:19.720Z,84.67
2022-10-05T11:41:05.559Z,85.18
2022-10-05T11:43:34.762Z,86.40
2022-10-05T11:46:19.141Z,85.99
2022-10-05T11:49:13.329Z,85.86
2022-10-05T11:52:00.257Z,86.40
2022-10-05T11:55:15.357Z,86.25
2022-10-05T11:57:50.037Z,86.89
2022-10-05T12:00:20.312Z,86.18
2022-10-05T12:02:53.033Z,87.03
2022-10-05T12:05:23.959Z,86.96
2022-10-05T12:08:09.022Z,86.89
2022-10-05T12:11:07.956Z,87.46
2022-10-05T12:13:45.103Z,88.08
2022-10-05T12:16:28.063Z,87.70
2022-10-05T12:19:02.608Z,88.12
2022-10-05T12:21:48.123Z,87.58
2022-10-05T12:24:42.984Z,87.74
2022-10-05T12:27:24.784Z,87.11
2022-10-05T12:30:01.069Z,87.88
2022-10-05T12:32:39.514Z,87.70
2022-10-05T12:35:36.664Z,87.48
2022-10-05T12:38:17.414Z,89.13
2022-10-05T12:40:50.990Z,88.92
2022-10-05T12:43:23.735Z,88.96
2022-10-05T12:46:06.261Z,89.03
2022-10-05T12:48:57.596Z,88.17
2022-10-05T12:52:10.229Z,88.26
2022-10-05T12:54:50.060Z,87.74
2022-10-05T12:57:25.763Z,88.30
2022-10-05T13:00:12.045Z,88.68
2022-10-05T13:03:07.610Z,88.54
2022-10-05T13:06:00.303Z,88.64
2022-10-05T13:08:53.496Z,88.76
2022-10-05T13:11:31.933Z,88.59
2022-10-05T13:14:34.269Z,88.23
2022-10-05T13:17:23.558Z,88.03
2022-10-05T13:19:59.562Z,88.23
2022-10-05T13:22:29.008Z,88.14
2022-10-05T13:25:13.625Z,88.20
2022-10-05T13:27:44.989Z,87.87
2022-10-05T13:30:21.272Z,87.51
2022-10-05T13:33:25.815Z,87.55
2022-10-05T13:36:20.379Z,87.88
2022-10-05T13:38:57.725Z,87.12
2022-10-05T13:41:45.737Z,86.81
2022-10-05T13:44:33.831Z,86.02
2022-10-05T13:47:06.710Z,86.02
2022-10-05T13:49:55.315Z,85.98
2022-10-05T13:52:42.018Z,86.48
2022-10-05T13:55:21.429Z,86.35
2022-10-05T13:57:54.861Z,86.88
2022-10-05T14:00:26.630Z,87.29
2022-10-05T14:02:55.995Z,87.37
2022-10-05T14:05:24.243Z,87.44
2022-10-05T14:08:15.789Z,87.94
2022-10-05T14:10:45.633Z,87.82
2022-10-05T14:13:12.839Z,88.04
2022-10-05T14:15:55.105Z,88.27
2022-10-05T14:18:25.251Z,87.77
2022-10-05T14:21:01.889Z,88.11
2022-10-05T14:23:29.236Z,88.61
2022-10-05T14:25:58.217Z,88.91
2022-10-05T14:28:37.812Z,88.54
2022-10-05T14:31:15.662Z,88.84
2022-10-05T14:33:42.341Z,89.15
2022-10-05T14:36:17.479Z,89.27
2022-10-05T14:38:57.814Z,89.33
2022-10-05T14:41:27.710Z,89.73
2022-10-05T14:44:05.154Z,89.77
2022-10-05T14:46:34.191Z,90.32
2022-10-05T14:49:21.454Z,90.20
2022-10-05T14:51:49.392Z,90.17
2022-10-05T14:54:51.633Z,90.43
2022-10-05T14:57:24.526Z,90.53
2022-10-05T15:00:10.932Z,90.81
2022-10-05T15:02:52.599Z,91.36
2022-10-05T15:05:26.076Z,90.93
2022-10-05T15:08:11.079Z,90.38
2022-10-05T15:10:49.210Z,90.31
2022-10-05T15:13:22.996Z,90.78
2022-10-05T15:15:56.837Z,90.65
2022-10-05T15:18:37.663Z,90.85
2022-10-05T15:21:21.837Z,90.16
2022-10-05T15:23:54.496Z,90.81
2022-10-05T15:26:49.864Z,90.59
2022-10-05T15:30:00.330Z,90.64
2022-10-05T15:33:08.533Z,90.68
2022-10-05T15:35:43.809Z,91.69
2022-10-05T15:38:20.869Z,91.85
2022-10-05T15:41:09.355Z,91.95
2022-10-05T15:44:00.510Z,92.08
2022-10-05T15:46:54.828Z,92.38
2022-10-05T15:49:43.031Z,92.42
2022-10-05T15:52:29.385Z,93.58
2022-10-05T15:55:17.182Z,93.75
2022-10-05T15:57:47.632Z,94.26
2022-10-05T16:00:16.643Z,94.79
2022-10-05T16:02:53.082Z,95.35
2022-10-05T16:05:56.669Z,95.67
2022-10-05T16:08:50.378Z,96.64
2022-10-05T16:11:36.944Z,97.58
2022-10-05T16:14:09.191Z,97.48
2022-10-05T16:16:53.651Z,98.37
2022-10-05T16:19:40.088Z,98.34
2022-10-05T16:22:15.766Z,98.85
2022-10-05T16:25:27.966Z,99.88
2022-10-05T16:28:06.710Z,99.90
2022-10-05T16:30:57.947Z,99.97
2022-10-05T16:33:42.258Z,100.00
2022-10-05T16:36:24.876Z,100.00
2022-10-05T16:39:06.159Z,100.00
2022-10-05T16:41:47.218Z,100.00
2022-10-05T16:44:35.525Z,100.00
2022-10-05T16:47:27.472Z,100.00
2022-10-05T16:50:27.417Z,100.00
2022-10-05T16:53:02.626Z,100.00
2022-10-05T16:55:35.066Z,100.00
2022-10-05T16:58:18.430Z,100.00
2022-10-05T17:01:04.252Z,100.00
2022-10-05T17:04:00.005Z,100.00
2022-10-05T17:06:45.638Z,100.00
2022-10-05T17:09:29.172Z,100.00
2022-10-05T17:12:15.462Z,100.00
2022-10-05T17:15:08.282Z,100.00
2022-10-05T17:17:37.493Z,100.00
2022-10-05T17:20:22.990Z,100.00
2022-10-05T17:22:50.580Z,100.00
2022-10-05T17:26:05.169Z,100.00
2022-10-05T17:29:00.037Z,100.00
2022-10-05T17:31:30.498Z,100.00
2022-10-05T17:34:25.531Z,100.00
2022-10-05T17:37:34.607Z,100.00
2022-10-05T17:40:29.941Z,100.00
2022-10-05T17:43:04.066Z,100.00
2022-10-05T17:45:30.905Z,100.00
2022-10-05T17:48:03.451Z,100.00
2022-10-05T17:51:05.134Z,100.00
2022-10-05T17:54:03.335Z,100.00
2022-10-05T17:56:33.100Z,100.00
2022-10-05T17:59:03.528Z,100.00
2022-10-05T18:01:40.099Z,100.00
2022-10-05T18:04:12.648Z,100.00
2022-10-05T18:06:47.331Z,100.00
2022-10-05T18:09:16.236Z,100.00
2022-10-05T18:11:47.502Z,100.00
2022-10-05T18:14:24.437Z,100.00
2022-10-05T18:17:11.823Z,100.00
2022-10-05T18:19:38.934Z,100.00
2022-10-05T18:22:27.052Z,100.00
2022-10-05T18:25:07.136Z,100.00
2022-10-05T18:27:36.406Z,100.00
2022-10-05T18:30:19.334Z,100.00
2022-10-05T18:32:51.936Z,100.00
2022-10-05T18:35:27.761Z,100.00
2022-10-05T18:38:18.138Z,100.00
2022-10-05T18:40:58.680Z,100.00
2022-10-05T18:43:37.458Z,100.00
2022-10-05T18:46:09.016Z,100.00
2022-10-05T18:48:45.274Z,100.00
2022-10-05T18:51:19.785Z,100.00
2022-10-05T18:54:12.672Z,100.00
2022-10-05T18:56:48.078Z,100.00
2022-10-05T18:59:43.682Z,100.00
2022-10-05T19:02:30.256Z,100.00
2022-10-05T19:05:23.580Z,100.00
2022-10-05T19:08:08.051Z,100.00
2022-10-05T19:10:57.585Z,100.00
2022-10-05T19:13:30.816Z,100.00
2022-10-05T19:16:19.306Z,100.00
2022-10-05T19:19:03.768Z,100.00
2022-10-05T19:21:55.087Z,100.00
2022-10-05T19:24:36.869Z,100.00
2022-10-05T19:27:25.772Z,100.00
2022-10-05T19:30:11.514Z,100.00
2022-10-05T19:33:12.844Z,100.00
2022-10-05T19:36:08.004Z,100.00
2022-10-05T19:38:40.775Z,100.00
2022-10-05T19:41:12.856Z,100.00
2022-10-05T19:43:56.349Z,100.00
2022-10-05T19:46:47.447Z,100.00
2022-10-05T19:49:34.984Z,100.00
2022-10-05T19:52:02.718Z,100.00
2022-10-05T19:54:29.525Z,100.00
2022-10-05T19:56:57.764Z,100.00
2022-10-05T19:59:32.249Z,100.00
2022-10-05T20:01:59.245Z,100.00
2022-10-05T20:04:42.521Z,100.00
2022-10-05T20:07:16.446Z,100.00
2022-10-05T20:10:17.997Z,100.00
2022-10-05T20:12:56.896Z,100.00
2022-10-05T20:15:45.532Z,100.00
2022-10-05T20:18:57.058Z,100.00
2022-10-05T20:21:45.829Z,100.00
2022-10-05T20:24:24.983Z,100.00
2022-10-05T20:27:01.346Z,100.00
2022-10-05T20:29:30.102Z,100.00
2022-10-05T20:31:56.844Z,100.00
2022-10-05T20:34:23.926Z,100.00
2022-10-05T20:36:50.465Z,100.00
2022-10-05T20:39:18.432Z,100.00
2022-10-05T20:41:45.617Z,100.00
2022-10-05T20:44:12.750Z,100.00
2022-10-05T20:46:42.109Z,100.00
2022-10-05T20:49:12.406Z,100.00
2022-10-05T20:51:39.796Z,100.00
2022-10-05T20:54:07.267Z,100.00
2022-10-05T20:56:34.037Z,100.00
2022-10-05T20:59:00.457Z,100.00
2022-10-05T21:01:28.321Z,100.00
2022-10-05T21:03:55.403Z,100.00
2022-10-05T21:06:22.228Z,100.00
2022-10-05T21:08:50.671Z,100.00
2022-10-05T21:11:17.606Z,100.00
2022-10-05T21:13:45.081Z,100.00
2022-10-05T21:16:16.086Z,100.00
2022-10-05T21:18:44.689Z,100.00
2022-10-05T21:21:10.892Z,100.00
2022-10-05T21:23:37.071Z,100.00
2022-10-05T21:26:03.385Z,100.00
2022-10-05T21:28:30.713Z,100.00
2022-10-05T21:30:57.409Z,100.00
2022-10-05T21:33:23.852Z,100.00
2022-10-05T21:35:50.073Z,100.00
2022-10-05T21:38:16.235Z,100.00
2022-10-05T21:40:44.707Z,100.00
2022-10-05T21:43:11.080Z,100.00
2022-10-05T21:45:41.653Z,100.00
2022-10-05T21:48:08.625Z,100.00
2022-10-05T21:50:36.961Z,100.00
2022-10-05T21:53:06.629Z,100.00
2022-10-05T21:55:36.917Z,100.00
2022-10-05T21:58:03.572Z,100.00
2022-10-05T22:00:30.272Z,100.00
2022-10-05T22:02:56.424Z,100.00
2022-10-05T22:05:22.667Z,100.00
2022-10-05T22:07:51.075Z,100.00
2022-10-05T22:10:17.445Z,100.00
2022-10-05T22:12:46.409Z,100.00
2022-10-05T22:15:13.118Z,100.00
2022-10-05T22:17:39.642Z,100.00
2022-10-05T22:20:06.794Z,100.00
2022-10-05T22:22:33.181Z,100.00
2022-10-05T22:24:59.421Z,100.00
2022-10-05T22:27:28.316Z,100.00
2022-10-05T22:29:57.277Z,100.00
2022-10-05T22:32:23.925Z,100.00
2022-10-05T22:34:50.122Z,100.00
2022-10-05T22:37:16.468Z,100.00
2022-10-05T22:39:42.954Z,100.00
2022-10-05T22:42:09.305Z,100.00
2022-10-05T22:44:35.734Z,100.00
2022-10-05T22:47:03.331Z,100.00
2022-10-05T22:49:29.454Z,100.00
2022-10-05T22:51:56.703Z,100.00
2022-10-05T22:54:26.260Z,100.00
2022-10-05T22:56:54.956Z,100.00
2022-10-05T22:59:22.023Z,100.00
2022-10-05T23:01:48.174Z,100.00
2022-10-05T23:04:14.343Z,100.00
2022-10-05T23:06:42.002Z,100.00
2022-10-05T23:09:08.093Z,100.00
2022-10-05T23:11:34.717Z,100.00
2022-10-05T23:14:01.281Z,100.00
2022-10-05T23:16:28.257Z,100.00
2022-10-05T23:18:55.277Z,100.00
2022-10-05T23:21:23.817Z,100.00
2022-10-05T23:23:52.827Z,100.00
2022-10-05T23:26:21.143Z,100.00
2022-10-05T23:28:48.489Z,100.00
2022-10-05T23:31:17.128Z,100.00
2022-10-05T23:33:43.403Z,100.00
2022-10-05T23:36:19.035Z,100.00
2022-10-05T23:38:45.510Z,100.00
2022-10-05T23:41:12.709Z,100.00
2022-10-05T23:43:38.998Z,100.00
2022-10-05T23:46:06.921Z,100.00
2022-10-05T23:48:37.234Z,100.00
2022-10-05T23:51:10.076Z,100.00
2022-10-05T23:53:36.953Z,100.00
2022-10-05T23:56:03.633Z,100.00
2022-10-05T23:58:30.351Z,100.00
